RKSS/GMP METAR and TAF weather

Enter ICAO airport designator
Station Type Date Time Source
RKSS METAR 2019/08/20 09:00 UTC NOAA

RKSS 200900Z 28003KT 220V350 9999 SCT040 31/21 Q1008 NOSIG


Station Type Date Time Source
RKSS Decoded METAR 2019/08/20 09:00 UTC NOAA

Seoul / Kimp'O International Airport, Korea, South (RKSS) 37-33N 126-48E 18M
Aug 20, 2019 - 05:00 AM EDT / 2019.08.20 0900 UTC
Wind: from the W (280 degrees) at 3 MPH (3 KT) (direction variable):0
Visibility: greater than 7 mile(s):0
Sky conditions: partly cloudy
Temperature: 87 F (31 C)
Dew Point: 69 F (21 C)
Relative Humidity: 55%
Pressure (altimeter): 29.77 in. Hg (1008 hPa)
ob: RKSS 200900Z 28003KT 220V350 9999 SCT040 31/21 Q1008 NOSIG
cycle: 9

Station Type Date Time Source
RKSS TAF 2019/08/20 06:07 UTC NOAA

TAF RKSS 200500Z 2006/2112 13005KT 9999 SCT030 TN22/2020Z TX31/2106Z
BECMG 2105/2106 27005KT
TEMPO 2107/2109 33005KT -RA

Example: see airport list